sensor_id;sensor_type;location;lat;lon;timestamp;pressure;altitude;pressure_sealevel;temperature;humidity
7111;BME280;3597;42.650;23.386;2024-03-08T00:02:16;96343.09;;;3.90;84.11
7111;BME280;3597;42.650;23.386;2024-03-08T00:04:42;96354.91;;;3.96;84.52
7111;BME280;3597;42.650;23.386;2024-03-08T00:07:08;96334.06;;;3.80;85.15
7111;BME280;3597;42.650;23.386;2024-03-08T00:09:33;96364.75;;;4.03;85.62
7111;BME280;3597;42.650;23.386;2024-03-08T00:11:59;96359.94;;;3.94;85.26
7111;BME280;3597;42.650;23.386;2024-03-08T00:14:25;96376.06;;;4.14;85.08
7111;BME280;3597;42.650;23.386;2024-03-08T00:16:50;96317.72;;;3.71;84.38
7111;BME280;3597;42.650;23.386;2024-03-08T00:19:18;96345.34;;;3.92;84.95
7111;BME280;3597;42.650;23.386;2024-03-08T00:21:44;96361.75;;;4.17;84.88
7111;BME280;3597;42.650;23.386;2024-03-08T00:24:10;96362.75;;;4.07;84.60
7111;BME280;3597;42.650;23.386;2024-03-08T00:26:36;96375.56;;;4.19;83.96
7111;BME280;3597;42.650;23.386;2024-03-08T00:29:01;96366.06;;;4.14;83.50
7111;BME280;3597;42.650;23.386;2024-03-08T00:31:27;96366.47;;;4.13;84.12
7111;BME280;3597;42.650;23.386;2024-03-08T00:33:53;96366.63;;;4.06;83.89
7111;BME280;3597;42.650;23.386;2024-03-08T00:36:19;96350.06;;;3.88;84.04
7111;BME280;3597;42.650;23.386;2024-03-08T00:38:45;96344.00;;;3.84;84.59
7111;BME280;3597;42.650;23.386;2024-03-08T00:41:11;96350.06;;;3.88;84.70
7111;BME280;3597;42.650;23.386;2024-03-08T00:43:36;96357.59;;;3.96;84.47
7111;BME280;3597;42.650;23.386;2024-03-08T00:46:02;96351.59;;;3.89;84.64
7111;BME280;3597;42.650;23.386;2024-03-08T00:48:28;96351.50;;;3.92;85.28
7111;BME280;3597;42.650;23.386;2024-03-08T00:50:53;96359.94;;;3.94;84.44
7111;BME280;3597;42.650;23.386;2024-03-08T00:53:19;96348.50;;;3.90;84.51
7111;BME280;3597;42.650;23.386;2024-03-08T00:55:44;96342.81;;;3.85;84.59
7111;BME280;3597;42.650;23.386;2024-03-08T00:58:12;96372.38;;;3.88;84.14
7111;BME280;3597;42.650;23.386;2024-03-08T01:00:38;96357.13;;;3.82;84.12
7111;BME280;3597;42.650;23.386;2024-03-08T01:03:07;96358.78;;;3.75;84.44
7111;BME280;3597;42.650;23.386;2024-03-08T01:05:33;96367.81;;;3.85;84.55
7111;BME280;3597;42.650;23.386;2024-03-08T01:08:00;96365.53;;;3.84;85.05
7111;BME280;3597;42.650;23.386;2024-03-08T01:10:26;96372.38;;;3.88;84.42
7111;BME280;3597;42.650;23.386;2024-03-08T01:12:52;96361.06;;;3.77;84.98
7111;BME280;3597;42.650;23.386;2024-03-08T01:15:19;96373.75;;;3.76;85.06
7111;BME280;3597;42.650;23.386;2024-03-08T01:17:45;96350.44;;;3.70;85.72
7111;BME280;3597;42.650;23.386;2024-03-08T01:20:11;96361.81;;;3.77;85.41
7111;BME280;3597;42.650;23.386;2024-03-08T01:22:38;96370.03;;;3.90;84.79
7111;BME280;3597;42.650;23.386;2024-03-08T01:25:07;96375.47;;;3.87;84.92
7111;BME280;3597;42.650;23.386;2024-03-08T01:27:34;96353.88;;;3.70;85.25
7111;BME280;3597;42.650;23.386;2024-03-08T01:30:01;96377.34;;;3.70;84.88
7111;BME280;3597;42.650;23.386;2024-03-08T01:32:26;96373.53;;;3.67;84.99
7111;BME280;3597;42.650;23.386;2024-03-08T01:34:52;96363.06;;;3.53;84.91
7111;BME280;3597;42.650;23.386;2024-03-08T01:37:17;96355.59;;;3.41;85.01
7111;BME280;3597;42.650;23.386;2024-03-08T01:39:43;96362.56;;;3.58;85.46
7111;BME280;3597;42.650;23.386;2024-03-08T01:42:08;96357.31;;;3.51;85.16
7111;BME280;3597;42.650;23.386;2024-03-08T01:44:36;96373.31;;;3.58;85.86
7111;BME280;3597;42.650;23.386;2024-03-08T01:47:02;96365.34;;;3.55;85.89
7111;BME280;3597;42.650;23.386;2024-03-08T01:49:27;96367.13;;;3.61;85.35
7111;BME280;3597;42.650;23.386;2024-03-08T01:51:54;96363.41;;;3.55;85.02
7111;BME280;3597;42.650;23.386;2024-03-08T01:54:22;96363.69;;;3.61;85.64
7111;BME280;3597;42.650;23.386;2024-03-08T01:56:48;96366.78;;;3.59;85.51
7111;BME280;3597;42.650;23.386;2024-03-08T01:59:15;96368.16;;;3.67;85.73
7111;BME280;3597;42.650;23.386;2024-03-08T02:01:41;96353.25;;;3.63;85.63
7111;BME280;3597;42.650;23.386;2024-03-08T02:04:07;96371.25;;;3.46;85.28
7111;BME280;3597;42.650;23.386;2024-03-08T02:06:33;96364.56;;;3.54;85.97
7111;BME280;3597;42.650;23.386;2024-03-08T02:08:59;96349.34;;;3.48;85.47
7111;BME280;3597;42.650;23.386;2024-03-08T02:11:25;96352.09;;;3.44;85.72
7111;BME280;3597;42.650;23.386;2024-03-08T02:13:50;96354.09;;;3.40;85.48
7111;BME280;3597;42.650;23.386;2024-03-08T02:16:22;96360.16;;;3.44;85.50
7111;BME280;3597;42.650;23.386;2024-03-08T02:18:48;96378.03;;;3.54;85.55
7111;BME280;3597;42.650;23.386;2024-03-08T02:21:16;96355.66;;;3.37;85.44
7111;BME280;3597;42.650;23.386;2024-03-08T02:23:44;96359.13;;;3.38;84.98
7111;BME280;3597;42.650;23.386;2024-03-08T02:26:09;96358.63;;;3.43;85.24
7111;BME280;3597;42.650;23.386;2024-03-08T02:28:36;96357.19;;;3.38;85.31
7111;BME280;3597;42.650;23.386;2024-03-08T02:31:01;96363.66;;;3.41;85.06
7111;BME280;3597;42.650;23.386;2024-03-08T02:33:28;96350.97;;;3.41;85.24
7111;BME280;3597;42.650;23.386;2024-03-08T02:35:54;96346.47;;;3.35;85.25
7111;BME280;3597;42.650;23.386;2024-03-08T02:38:22;96382.25;;;3.55;84.68
7111;BME280;3597;42.650;23.386;2024-03-08T02:40:50;96349.72;;;3.26;85.47
7111;BME280;3597;42.650;23.386;2024-03-08T02:43:17;96373.78;;;3.33;84.48
7111;BME280;3597;42.650;23.386;2024-03-08T02:45:43;96362.47;;;3.22;85.28
7111;BME280;3597;42.650;23.386;2024-03-08T02:48:12;96364.63;;;3.08;84.90
7111;BME280;3597;42.650;23.386;2024-03-08T02:50:38;96372.94;;;3.17;85.30
7111;BME280;3597;42.650;23.386;2024-03-08T02:53:11;96381.94;;;3.30;84.84
7111;BME280;3597;42.650;23.386;2024-03-08T02:55:40;96379.59;;;3.09;85.46
7111;BME280;3597;42.650;23.386;2024-03-08T02:58:06;96386.59;;;3.26;85.91
7111;BME280;3597;42.650;23.386;2024-03-08T03:00:38;96386.91;;;3.31;85.12
7111;BME280;3597;42.650;23.386;2024-03-08T03:03:04;96368.31;;;3.17;84.86
7111;BME280;3597;42.650;23.386;2024-03-08T03:05:31;96357.00;;;3.06;85.52
7111;BME280;3597;42.650;23.386;2024-03-08T03:07:57;96374.59;;;3.11;85.14
7111;BME280;3597;42.650;23.386;2024-03-08T03:10:24;96384.94;;;3.12;85.01
7111;BME280;3597;42.650;23.386;2024-03-08T03:12:50;96357.34;;;2.85;85.45
7111;BME280;3597;42.650;23.386;2024-03-08T03:15:16;96357.34;;;2.85;85.38
7111;BME280;3597;42.650;23.386;2024-03-08T03:17:49;96380.53;;;2.98;85.90
7111;BME280;3597;42.650;23.386;2024-03-08T03:20:17;96383.22;;;2.98;86.22
7111;BME280;3597;42.650;23.386;2024-03-08T03:22:49;96384.28;;;3.04;86.23
7111;BME280;3597;42.650;23.386;2024-03-08T03:25:20;96385.50;;;3.00;85.52
7111;BME280;3597;42.650;23.386;2024-03-08T03:27:54;96378.69;;;2.95;86.12
7111;BME280;3597;42.650;23.386;2024-03-08T03:30:23;96376.81;;;2.92;86.17
7111;BME280;3597;42.650;23.386;2024-03-08T03:32:49;96355.84;;;2.84;85.70
7111;BME280;3597;42.650;23.386;2024-03-08T03:35:17;96373.75;;;2.90;86.04
7111;BME280;3597;42.650;23.386;2024-03-08T03:37:42;96395.09;;;3.01;85.67
7111;BME280;3597;42.650;23.386;2024-03-08T03:40:11;96391.38;;;2.95;86.09
7111;BME280;3597;42.650;23.386;2024-03-08T03:42:38;96379.25;;;2.83;85.11
7111;BME280;3597;42.650;23.386;2024-03-08T03:45:05;96374.50;;;2.67;85.75
7111;BME280;3597;42.650;23.386;2024-03-08T03:47:31;96382.88;;;2.73;85.85
7111;BME280;3597;42.650;23.386;2024-03-08T03:49:57;96385.09;;;2.78;85.22
7111;BME280;3597;42.650;23.386;2024-03-08T03:52:27;96391.41;;;2.68;85.66
7111;BME280;3597;42.650;23.386;2024-03-08T03:54:52;96389.47;;;2.69;85.62
7111;BME280;3597;42.650;23.386;2024-03-08T03:57:18;96405.78;;;2.81;85.46
7111;BME280;3597;42.650;23.386;2024-03-08T03:59:44;96407.41;;;2.75;85.47
7111;BME280;3597;42.650;23.386;2024-03-08T04:02:09;96409.94;;;2.86;85.41
7111;BME280;3597;42.650;23.386;2024-03-08T04:04:35;96399.06;;;2.70;85.37
7111;BME280;3597;42.650;23.386;2024-03-08T04:07:00;96405.56;;;2.72;86.06
7111;BME280;3597;42.650;23.386;2024-03-08T04:09:27;96395.22;;;2.71;85.67
7111;BME280;3597;42.650;23.386;2024-03-08T04:11:53;96396.25;;;2.77;84.98
7111;BME280;3597;42.650;23.386;2024-03-08T04:14:20;96377.72;;;2.59;85.25
7111;BME280;3597;42.650;23.386;2024-03-08T04:16:46;96402.94;;;2.65;85.79
7111;BME280;3597;42.650;23.386;2024-03-08T04:19:13;96417.03;;;2.73;85.80
7111;BME280;3597;42.650;23.386;2024-03-08T04:21:39;96407.91;;;2.66;85.58
7111;BME280;3597;42.650;23.386;2024-03-08T04:24:04;96419.00;;;2.72;85.70
7111;BME280;3597;42.650;23.386;2024-03-08T04:26:31;96427.38;;;2.74;85.93
7111;BME280;3597;42.650;23.386;2024-03-08T04:28:56;96438.97;;;2.71;85.58
7111;BME280;3597;42.650;23.386;2024-03-08T04:31:22;96437.34;;;2.77;85.70
7111;BME280;3597;42.650;23.386;2024-03-08T04:33:48;96433.25;;;2.65;85.77
7111;BME280;3597;42.650;23.386;2024-03-08T04:36:13;96428.97;;;2.45;85.83
7111;BME280;3597;42.650;23.386;2024-03-08T04:38:40;96442.84;;;2.66;85.68
7111;BME280;3597;42.650;23.386;2024-03-08T04:41:06;96415.19;;;2.43;86.11
7111;BME280;3597;42.650;23.386;2024-03-08T04:43:33;96451.06;;;2.56;86.47
7111;BME280;3597;42.650;23.386;2024-03-08T04:45:59;96445.25;;;2.61;86.43
7111;BME280;3597;42.650;23.386;2024-03-08T04:48:24;96449.66;;;2.75;86.16
7111;BME280;3597;42.650;23.386;2024-03-08T04:50:52;96440.38;;;2.52;86.34
7111;BME280;3597;42.650;23.386;2024-03-08T04:53:19;96446.88;;;2.55;86.24
7111;BME280;3597;42.650;23.386;2024-03-08T04:55:45;96467.50;;;2.61;86.09
7111;BME280;3597;42.650;23.386;2024-03-08T04:58:10;96457.16;;;2.60;86.16
7111;BME280;3597;42.650;23.386;2024-03-08T05:00:36;96451.16;;;2.49;85.86
7111;BME280;3597;42.650;23.386;2024-03-08T05:03:01;96468.78;;;2.50;86.66
7111;BME280;3597;42.650;23.386;2024-03-08T05:05:27;96471.44;;;2.53;86.61
7111;BME280;3597;42.650;23.386;2024-03-08T05:07:54;96479.53;;;2.50;86.35
7111;BME280;3597;42.650;23.386;2024-03-08T05:10:19;96441.00;;;2.33;86.52
7111;BME280;3597;42.650;23.386;2024-03-08T05:12:45;96468.91;;;2.43;86.49
7111;BME280;3597;42.650;23.386;2024-03-08T05:15:11;96469.47;;;2.27;86.09
7111;BME280;3597;42.650;23.386;2024-03-08T05:17:36;96489.66;;;2.39;86.70
7111;BME280;3597;42.650;23.386;2024-03-08T05:20:02;96457.31;;;2.19;86.95
7111;BME280;3597;42.650;23.386;2024-03-08T05:22:29;96477.81;;;2.36;86.44
7111;BME280;3597;42.650;23.386;2024-03-08T05:24:55;96494.31;;;2.35;86.85
7111;BME280;3597;42.650;23.386;2024-03-08T05:27:20;96513.09;;;2.38;86.36
7111;BME280;3597;42.650;23.386;2024-03-08T05:29:46;96475.78;;;2.13;86.09
7111;BME280;3597;42.650;23.386;2024-03-08T05:32:12;96517.69;;;2.38;87.08
7111;BME280;3597;42.650;23.386;2024-03-08T05:34:37;96498.66;;;2.25;85.89
7111;BME280;3597;42.650;23.386;2024-03-08T05:37:04;96517.34;;;2.36;86.57
7111;BME280;3597;42.650;23.386;2024-03-08T05:39:29;96497.97;;;2.17;85.94
7111;BME280;3597;42.650;23.386;2024-03-08T05:41:55;96519.66;;;2.34;86.19
7111;BME280;3597;42.650;23.386;2024-03-08T05:44:21;96506.72;;;2.25;85.33
7111;BME280;3597;42.650;23.386;2024-03-08T05:46:47;96518.53;;;2.31;85.98
7111;BME280;3597;42.650;23.386;2024-03-08T05:49:12;96537.47;;;2.51;85.47
7111;BME280;3597;42.650;23.386;2024-03-08T05:51:39;96535.66;;;2.44;85.35
7111;BME280;3597;42.650;23.386;2024-03-08T05:54:07;96538.34;;;2.44;86.14
7111;BME280;3597;42.650;23.386;2024-03-08T05:56:34;96531.38;;;2.47;85.97
7111;BME280;3597;42.650;23.386;2024-03-08T05:59:01;96529.06;;;2.49;86.28
7111;BME280;3597;42.650;23.386;2024-03-08T06:01:29;96526.00;;;2.47;85.14
7111;BME280;3597;42.650;23.386;2024-03-08T06:03:56;96538.28;;;2.48;85.03
7111;BME280;3597;42.650;23.386;2024-03-08T06:06:25;96548.63;;;2.49;85.77
7111;BME280;3597;42.650;23.386;2024-03-08T06:08:51;96552.81;;;2.54;85.90
7111;BME280;3597;42.650;23.386;2024-03-08T06:11:18;96554.19;;;2.65;85.44
7111;BME280;3597;42.650;23.386;2024-03-08T06:13:45;96512.66;;;2.40;84.56
7111;BME280;3597;42.650;23.386;2024-03-08T06:16:10;96545.81;;;2.60;85.17
7111;BME280;3597;42.650;23.386;2024-03-08T06:18:37;96560.81;;;2.57;85.25
7111;BME280;3597;42.650;23.386;2024-03-08T06:21:03;96556.56;;;2.60;86.02
7111;BME280;3597;42.650;23.386;2024-03-08T06:23:32;96537.16;;;2.45;84.81
7111;BME280;3597;42.650;23.386;2024-03-08T06:25:58;96560.00;;;2.60;84.76
7111;BME280;3597;42.650;23.386;2024-03-08T06:28:24;96517.81;;;2.27;84.04
7111;BME280;3597;42.650;23.386;2024-03-08T06:30:50;96556.38;;;2.44;84.85
7111;BME280;3597;42.650;23.386;2024-03-08T06:33:17;96558.09;;;2.27;84.72
7111;BME280;3597;42.650;23.386;2024-03-08T06:35:43;96550.16;;;2.16;85.15
7111;BME280;3597;42.650;23.386;2024-03-08T06:38:09;96554.91;;;2.02;84.74
7111;BME280;3597;42.650;23.386;2024-03-08T06:40:35;96554.91;;;2.02;85.70
7111;BME280;3597;42.650;23.386;2024-03-08T06:43:00;96519.53;;;1.73;85.20
7111;BME280;3597;42.650;23.386;2024-03-08T06:45:26;96538.53;;;1.89;85.90
7111;BME280;3597;42.650;23.386;2024-03-08T06:47:51;96567.13;;;2.06;86.10
7111;BME280;3597;42.650;23.386;2024-03-08T06:50:17;96543.50;;;1.90;85.90
7111;BME280;3597;42.650;23.386;2024-03-08T06:52:43;96578.63;;;2.07;86.09
7111;BME280;3597;42.650;23.386;2024-03-08T06:55:10;96558.44;;;1.95;85.64
7111;BME280;3597;42.650;23.386;2024-03-08T06:57:41;96566.47;;;1.95;85.87
7111;BME280;3597;42.650;23.386;2024-03-08T07:00:08;96573.34;;;1.96;87.15
7111;BME280;3597;42.650;23.386;2024-03-08T07:02:44;96568.97;;;2.13;86.22
7111;BME280;3597;42.650;23.386;2024-03-08T07:05:11;96572.84;;;2.08;85.63
7111;BME280;3597;42.650;23.386;2024-03-08T07:07:37;96588.50;;;2.17;86.51
7111;BME280;3597;42.650;23.386;2024-03-08T07:10:03;96573.22;;;2.10;86.17
7111;BME280;3597;42.650;23.386;2024-03-08T07:12:29;96588.53;;;2.13;86.29
7111;BME280;3597;42.650;23.386;2024-03-08T07:14:55;96589.25;;;2.17;85.92
7111;BME280;3597;42.650;23.386;2024-03-08T07:17:21;96603.38;;;2.25;85.65
7111;BME280;3597;42.650;23.386;2024-03-08T07:19:46;96591.19;;;2.17;85.77
7111;BME280;3597;42.650;23.386;2024-03-08T07:22:12;96610.66;;;2.24;85.63
7111;BME280;3597;42.650;23.386;2024-03-08T07:24:37;96591.16;;;2.20;85.27
7111;BME280;3597;42.650;23.386;2024-03-08T07:27:26;96601.44;;;2.29;85.07
7111;BME280;3597;42.650;23.386;2024-03-08T07:29:51;96591.47;;;2.26;85.04
7111;BME280;3597;42.650;23.386;2024-03-08T07:32:17;96619.75;;;2.38;85.01
7111;BME280;3597;42.650;23.386;2024-03-08T07:34:49;96605.97;;;2.36;85.21
7111;BME280;3597;42.650;23.386;2024-03-08T07:37:16;96616.25;;;2.41;84.93
7111;BME280;3597;42.650;23.386;2024-03-08T07:39:42;96603.28;;;2.32;85.13
7111;BME280;3597;42.650;23.386;2024-03-08T07:42:08;96612.16;;;2.29;85.29
7111;BME280;3597;42.650;23.386;2024-03-08T07:44:35;96607.13;;;2.31;85.61
7111;BME280;3597;42.650;23.386;2024-03-08T07:47:00;96611.31;;;2.36;85.17
7111;BME280;3597;42.650;23.386;2024-03-08T07:49:26;96625.13;;;2.38;85.82
7111;BME280;3597;42.650;23.386;2024-03-08T07:51:52;96624.06;;;2.28;85.40
7111;BME280;3597;42.650;23.386;2024-03-08T07:54:17;96600.94;;;2.00;84.68
7111;BME280;3597;42.650;23.386;2024-03-08T07:56:43;96588.00;;;1.88;85.68
7111;BME280;3597;42.650;23.386;2024-03-08T07:59:08;96620.28;;;2.22;86.40
7111;BME280;3597;42.650;23.386;2024-03-08T08:01:37;96556.69;;;1.74;86.40
7111;BME280;3597;42.650;23.386;2024-03-08T08:04:03;96623.69;;;2.26;85.70
7111;BME280;3597;42.650;23.386;2024-03-08T08:06:28;96617.25;;;2.20;85.45
7111;BME280;3597;42.650;23.386;2024-03-08T08:08:57;96603.84;;;2.16;85.32
7111;BME280;3597;42.650;23.386;2024-03-08T08:11:22;96606.53;;;2.16;86.04
7111;BME280;3597;42.650;23.386;2024-03-08T08:13:48;96640.41;;;2.44;85.57
7111;BME280;3597;42.650;23.386;2024-03-08T08:16:13;96636.56;;;2.45;85.32
7111;BME280;3597;42.650;23.386;2024-03-08T08:18:39;96613.66;;;2.34;85.06
7111;BME280;3597;42.650;23.386;2024-03-08T08:21:06;96610.28;;;2.22;84.61
7111;BME280;3597;42.650;23.386;2024-03-08T08:23:32;96640.41;;;2.44;84.86
7111;BME280;3597;42.650;23.386;2024-03-08T08:25:58;96621.00;;;2.30;85.49
7111;BME280;3597;42.650;23.386;2024-03-08T08:28:24;96627.16;;;2.26;85.53
7111;BME280;3597;42.650;23.386;2024-03-08T08:30:50;96645.78;;;2.41;84.90
7111;BME280;3597;42.650;23.386;2024-03-08T08:33:16;96621.78;;;2.26;85.08
7111;BME280;3597;42.650;23.386;2024-03-08T08:35:41;96641.59;;;2.40;85.26
7111;BME280;3597;42.650;23.386;2024-03-08T08:38:08;96646.63;;;2.38;84.73
7111;BME280;3597;42.650;23.386;2024-03-08T08:40:34;96636.69;;;2.31;84.51
7111;BME280;3597;42.650;23.386;2024-03-08T08:43:01;96654.66;;;2.38;84.29
7111;BME280;3597;42.650;23.386;2024-03-08T08:45:30;96636.81;;;2.20;84.94
7111;BME280;3597;42.650;23.386;2024-03-08T08:47:56;96634.91;;;2.17;84.32
7111;BME280;3597;42.650;23.386;2024-03-08T08:50:22;96647.88;;;2.22;84.78
7111;BME280;3597;42.650;23.386;2024-03-08T08:52:49;96653.59;;;2.28;85.01
7111;BME280;3597;42.650;23.386;2024-03-08T08:55:15;96652.06;;;2.27;84.85
7111;BME280;3597;42.650;23.386;2024-03-08T08:57:41;96639.19;;;2.11;84.13
7111;BME280;3597;42.650;23.386;2024-03-08T09:00:07;96629.63;;;2.07;85.09
7111;BME280;3597;42.650;23.386;2024-03-08T09:02:36;96653.69;;;2.21;84.56
7111;BME280;3597;42.650;23.386;2024-03-08T09:05:03;96617.75;;;2.04;84.40
7111;BME280;3597;42.650;23.386;2024-03-08T09:07:29;96650.22;;;2.20;84.25
7111;BME280;3597;42.650;23.386;2024-03-08T09:09:55;96643.47;;;2.02;84.79
7111;BME280;3597;42.650;23.386;2024-03-08T09:12:24;96650.63;;;2.15;85.23
7111;BME280;3597;42.650;23.386;2024-03-08T09:14:49;96649.16;;;2.11;85.26
7111;BME280;3597;42.650;23.386;2024-03-08T09:17:15;96637.34;;;2.01;85.39
7111;BME280;3597;42.650;23.386;2024-03-08T09:19:48;96647.50;;;2.24;84.94
7111;BME280;3597;42.650;23.386;2024-03-08T09:22:14;96644.44;;;2.22;84.74
7111;BME280;3597;42.650;23.386;2024-03-08T09:24:40;96620.84;;;2.03;84.51
7111;BME280;3597;42.650;23.386;2024-03-08T09:27:06;96630.75;;;2.09;84.79
7111;BME280;3597;42.650;23.386;2024-03-08T09:29:33;96639.50;;;2.20;84.21
7111;BME280;3597;42.650;23.386;2024-03-08T09:31:58;96623.06;;;2.11;83.89
7111;BME280;3597;42.650;23.386;2024-03-08T09:34:24;96648.25;;;2.24;84.57
7111;BME280;3597;42.650;23.386;2024-03-08T09:36:49;96660.13;;;2.27;83.85
7111;BME280;3597;42.650;23.386;2024-03-08T09:39:17;96648.63;;;2.26;84.78
7111;BME280;3597;42.650;23.386;2024-03-08T09:41:45;96660.97;;;2.20;84.14
7111;BME280;3597;42.650;23.386;2024-03-08T09:44:15;96653.78;;;2.07;84.54
7111;BME280;3597;42.650;23.386;2024-03-08T09:46:42;96663.53;;;2.31;84.86
7111;BME280;3597;42.650;23.386;2024-03-08T09:49:08;96656.59;;;2.37;84.41
7111;BME280;3597;42.650;23.386;2024-03-08T09:51:34;96649.34;;;2.31;84.59
7111;BME280;3597;42.650;23.386;2024-03-08T09:54:05;96611.53;;;2.14;84.89
7111;BME280;3597;42.650;23.386;2024-03-08T09:56:35;96610.34;;;2.19;84.12
7111;BME280;3597;42.650;23.386;2024-03-08T09:59:01;96625.16;;;2.31;84.10
7111;BME280;3597;42.650;23.386;2024-03-08T10:01:37;96650.69;;;2.49;84.24
7111;BME280;3597;42.650;23.386;2024-03-08T10:04:04;96650.22;;;2.58;83.32
7111;BME280;3597;42.650;23.386;2024-03-08T10:06:30;96657.03;;;2.66;83.85
7111;BME280;3597;42.650;23.386;2024-03-08T10:08:57;96657.88;;;2.63;83.43
7111;BME280;3597;42.650;23.386;2024-03-08T10:11:24;96662.78;;;2.68;83.67
7111;BME280;3597;42.650;23.386;2024-03-08T10:13:49;96640.22;;;2.62;83.09
7111;BME280;3597;42.650;23.386;2024-03-08T10:16:15;96664.63;;;2.75;83.14
7111;BME280;3597;42.650;23.386;2024-03-08T10:18:42;96640.97;;;2.62;83.25
7111;BME280;3597;42.650;23.386;2024-03-08T10:21:08;96651.56;;;2.77;83.17
7111;BME280;3597;42.650;23.386;2024-03-08T10:23:40;96658.97;;;2.65;82.67
7111;BME280;3597;42.650;23.386;2024-03-08T10:26:13;96651.84;;;2.52;83.90
7111;BME280;3597;42.650;23.386;2024-03-08T10:28:50;96661.66;;;2.65;83.53
7111;BME280;3597;42.650;23.386;2024-03-08T10:31:17;96632.09;;;2.65;83.52
7111;BME280;3597;42.650;23.386;2024-03-08T10:33:44;96653.94;;;2.71;84.13
7111;BME280;3597;42.650;23.386;2024-03-08T10:36:11;96655.22;;;2.90;83.82
7111;BME280;3597;42.650;23.386;2024-03-08T10:38:40;96660.69;;;2.83;83.76
7111;BME280;3597;42.650;23.386;2024-03-08T10:41:08;96656.28;;;2.99;83.71
7111;BME280;3597;42.650;23.386;2024-03-08T10:43:52;96650.56;;;2.97;83.24
7111;BME280;3597;42.650;23.386;2024-03-08T10:46:52;96646.53;;;3.13;82.86
7111;BME280;3597;42.650;23.386;2024-03-08T10:49:31;96631.13;;;2.83;82.53
7111;BME280;3597;42.650;23.386;2024-03-08T10:52:03;96650.19;;;2.95;82.32
7111;BME280;3597;42.650;23.386;2024-03-08T10:54:31;96627.25;;;2.87;82.66
7111;BME280;3597;42.650;23.386;2024-03-08T10:56:59;96607.81;;;2.73;83.36
7111;BME280;3597;42.650;23.386;2024-03-08T10:59:29;96630.91;;;3.00;82.84
7111;BME280;3597;42.650;23.386;2024-03-08T11:01:55;96623.69;;;2.97;83.52
7111;BME280;3597;42.650;23.386;2024-03-08T11:04:21;96587.53;;;2.72;82.70
7111;BME280;3597;42.650;23.386;2024-03-08T11:06:50;96640.69;;;3.18;82.78
7111;BME280;3597;42.650;23.386;2024-03-08T11:09:28;96632.63;;;3.18;82.44
7111;BME280;3597;42.650;23.386;2024-03-08T11:12:26;96627.97;;;3.22;81.81
7111;BME280;3597;42.650;23.386;2024-03-08T11:15:16;96615.78;;;3.14;82.05
7111;BME280;3597;42.650;23.386;2024-03-08T11:17:48;96600.25;;;3.25;81.62
7111;BME280;3597;42.650;23.386;2024-03-08T11:20:18;96603.19;;;3.34;82.18
7111;BME280;3597;42.650;23.386;2024-03-08T11:22:53;96614.56;;;3.45;81.69
7111;BME280;3597;42.650;23.386;2024-03-08T11:25:39;96621.09;;;3.44;81.67
7111;BME280;3597;42.650;23.386;2024-03-08T11:28:17;96590.72;;;3.20;82.18
7111;BME280;3597;42.650;23.386;2024-03-08T11:33:27;96617.00;;;3.36;80.67
7111;BME280;3597;42.650;23.386;2024-03-08T11:36:13;96617.13;;;3.25;81.07
7111;BME280;3597;42.650;23.386;2024-03-08T11:38:44;96631.56;;;3.38;81.48
7111;BME280;3597;42.650;23.386;2024-03-08T11:41:10;96630.06;;;3.37;80.32
7111;BME280;3597;42.650;23.386;2024-03-08T11:43:42;96630.59;;;3.25;81.53
7111;BME280;3597;42.650;23.386;2024-03-08T11:46:11;96620.22;;;3.24;80.60
7111;BME280;3597;42.650;23.386;2024-03-08T11:48:39;96612.66;;;3.15;81.74
7111;BME280;3597;42.650;23.386;2024-03-08T11:51:08;96591.31;;;3.04;82.09
7111;BME280;3597;42.650;23.386;2024-03-08T11:53:34;96598.47;;;3.15;81.08
7111;BME280;3597;42.650;23.386;2024-03-08T11:58:31;96529.66;;;2.90;80.71
7111;BME280;3597;42.650;23.386;2024-03-08T12:01:10;96590.13;;;3.32;81.13
7111;BME280;3597;42.650;23.386;2024-03-08T12:03:42;96600.97;;;3.29;81.09
7111;BME280;3597;42.650;23.386;2024-03-08T12:06:08;96605.59;;;3.28;81.19
7111;BME280;3597;42.650;23.386;2024-03-08T12:08:37;96616.50;;;3.45;81.02
7111;BME280;3597;42.650;23.386;2024-03-08T12:11:06;96618.03;;;3.46;81.35
7111;BME280;3597;42.650;23.386;2024-03-08T12:13:33;96625.69;;;3.47;81.12
7111;BME280;3597;42.650;23.386;2024-03-08T12:16:00;96610.91;;;3.32;80.65
7111;BME280;3597;42.650;23.386;2024-03-08T12:18:26;96615.25;;;3.49;81.34
7111;BME280;3597;42.650;23.386;2024-03-08T12:21:10;96601.97;;;3.38;80.75
7111;BME280;3597;42.650;23.386;2024-03-08T12:23:38;96620.84;;;3.62;81.64
7111;BME280;3597;42.650;23.386;2024-03-08T12:26:18;96606.63;;;3.61;80.62
7111;BME280;3597;42.650;23.386;2024-03-08T12:28:45;96597.44;;;3.59;79.07
7111;BME280;3597;42.650;23.386;2024-03-08T12:31:16;96601.38;;;3.54;80.00
7111;BME280;3597;42.650;23.386;2024-03-08T12:33:52;96599.38;;;3.58;80.32
7111;BME280;3597;42.650;23.386;2024-03-08T12:36:19;96590.13;;;3.59;80.24
7111;BME280;3597;42.650;23.386;2024-03-08T12:38:48;96613.72;;;3.75;79.59
7111;BME280;3597;42.650;23.386;2024-03-08T12:41:18;96606.63;;;3.61;79.82
7111;BME280;3597;42.650;23.386;2024-03-08T12:43:47;96586.75;;;3.55;80.07
7111;BME280;3597;42.650;23.386;2024-03-08T12:46:19;96613.13;;;3.64;79.96
7111;BME280;3597;42.650;23.386;2024-03-08T12:48:46;96605.41;;;3.66;80.64
7111;BME280;3597;42.650;23.386;2024-03-08T12:51:16;96602.06;;;3.58;80.76
7111;BME280;3597;42.650;23.386;2024-03-08T12:53:43;96588.34;;;3.49;79.69
7111;BME280;3597;42.650;23.386;2024-03-08T12:56:13;96606.16;;;3.66;79.57
7111;BME280;3597;42.650;23.386;2024-03-08T12:58:39;96583.44;;;3.44;79.49
7111;BME280;3597;42.650;23.386;2024-03-08T13:01:06;96607.09;;;3.56;80.39
7111;BME280;3597;42.650;23.386;2024-03-08T13:03:35;96600.00;;;3.42;80.84
7111;BME280;3597;42.650;23.386;2024-03-08T13:06:02;96580.22;;;3.29;80.47
7111;BME280;3597;42.650;23.386;2024-03-08T13:08:29;96604.81;;;3.55;80.51
7111;BME280;3597;42.650;23.386;2024-03-08T13:10:56;96603.25;;;3.57;80.14
7111;BME280;3597;42.650;23.386;2024-03-08T13:13:22;96609.28;;;3.65;79.47
7111;BME280;3597;42.650;23.386;2024-03-08T13:15:48;96598.31;;;3.52;80.21
7111;BME280;3597;42.650;23.386;2024-03-08T13:18:14;96612.63;;;3.72;79.81
7111;BME280;3597;42.650;23.386;2024-03-08T13:20:41;96594.75;;;3.59;79.51
7111;BME280;3597;42.650;23.386;2024-03-08T13:23:09;96603.53;;;3.63;78.79
7111;BME280;3597;42.650;23.386;2024-03-08T13:25:34;96609.72;;;3.60;80.43
7111;BME280;3597;42.650;23.386;2024-03-08T13:28:04;96606.34;;;3.56;80.47
7111;BME280;3597;42.650;23.386;2024-03-08T13:30:31;96599.88;;;3.50;79.44